createdAt,value
2023-12-15T00:00:58.954Z,100.00
2023-12-15T00:04:01.646Z,100.00
2023-12-15T00:07:04.608Z,100.00
2023-12-15T00:10:08.246Z,100.00
2023-12-15T00:13:11.292Z,100.00
2023-12-15T00:16:13.987Z,100.00
2023-12-15T00:19:17.076Z,100.00
2023-12-15T00:22:22.898Z,100.00
2023-12-15T00:25:25.914Z,100.00
2023-12-15T00:28:28.661Z,100.00
2023-12-15T00:31:31.553Z,100.00
2023-12-15T00:34:34.736Z,100.00
2023-12-15T00:37:38.169Z,100.00
2023-12-15T00:40:41.100Z,100.00
2023-12-15T00:43:43.837Z,100.00
2023-12-15T00:46:46.507Z,100.00
2023-12-15T00:49:49.528Z,100.00
2023-12-15T00:52:52.261Z,100.00
2023-12-15T00:55:55.392Z,100.00
2023-12-15T00:58:58.599Z,100.00
2023-12-15T01:02:01.368Z,100.00
2023-12-15T01:05:04.548Z,100.00
2023-12-15T01:08:10.953Z,100.00
2023-12-15T01:11:14.043Z,100.00
2023-12-15T01:14:16.996Z,100.00
2023-12-15T01:17:22.778Z,100.00
2023-12-15T01:20:25.779Z,100.00
2023-12-15T01:23:28.864Z,100.00
2023-12-15T01:26:32.112Z,100.00
2023-12-15T01:29:34.902Z,100.00
2023-12-15T01:32:37.834Z,100.00
2023-12-15T01:35:41.038Z,100.00
2023-12-15T01:38:45.232Z,100.00
2023-12-15T01:41:54.029Z,100.00
2023-12-15T01:44:56.848Z,100.00
2023-12-15T01:48:03.473Z,100.00
2023-12-15T01:51:06.923Z,100.00
2023-12-15T01:54:13.188Z,100.00
2023-12-15T01:57:16.691Z,100.00
2023-12-15T02:00:19.545Z,100.00
2023-12-15T02:03:22.366Z,100.00
2023-12-15T02:06:25.379Z,100.00
2023-12-15T02:09:28.437Z,100.00
2023-12-15T02:12:31.166Z,100.00
2023-12-15T02:15:33.840Z,100.00
2023-12-15T02:18:36.704Z,100.00
2023-12-15T02:21:39.499Z,100.00
2023-12-15T02:24:42.501Z,100.00
2023-12-15T02:27:45.579Z,100.00
2023-12-15T02:30:48.423Z,100.00
2023-12-15T02:33:51.498Z,100.00
2023-12-15T02:36:54.470Z,100.00
2023-12-15T02:39:57.207Z,100.00
2023-12-15T02:43:00.889Z,100.00
2023-12-15T02:46:03.750Z,100.00
2023-12-15T02:49:06.589Z,100.00
2023-12-15T02:52:09.609Z,100.00
2023-12-15T02:55:15.417Z,100.00
2023-12-15T02:58:19.046Z,100.00
2023-12-15T03:01:24.913Z,100.00
2023-12-15T03:04:27.923Z,100.00
2023-12-15T03:07:30.641Z,100.00
2023-12-15T03:10:33.639Z,100.00
2023-12-15T03:13:38.283Z,100.00
2023-12-15T03:16:41.245Z,100.00
2023-12-15T03:19:44.453Z,100.00
2023-12-15T03:22:47.134Z,100.00
2023-12-15T03:25:52.813Z,100.00
2023-12-15T03:28:55.800Z,100.00
2023-12-15T03:31:58.982Z,100.00
2023-12-15T03:35:01.768Z,100.00
2023-12-15T03:38:05.577Z,100.00
2023-12-15T03:41:08.292Z,100.00
2023-12-15T03:44:11.284Z,100.00
2023-12-15T03:47:14.164Z,100.00
2023-12-15T03:50:17.008Z,100.00
2023-12-15T03:53:19.767Z,100.00
2023-12-15T03:56:26.761Z,100.00
2023-12-15T03:59:32.395Z,100.00
2023-12-15T04:02:35.905Z,100.00
2023-12-15T04:05:38.925Z,100.00
2023-12-15T04:08:45.473Z,100.00
2023-12-15T04:11:49.013Z,100.00
2023-12-15T04:14:55.200Z,100.00
2023-12-15T04:17:58.097Z,100.00
2023-12-15T04:21:01.726Z,100.00
2023-12-15T04:24:05.405Z,100.00
2023-12-15T04:27:17.324Z,100.00
2023-12-15T04:30:22.990Z,100.00
2023-12-15T04:33:25.897Z,100.00
2023-12-15T04:36:28.582Z,100.00
2023-12-15T04:39:31.365Z,100.00
2023-12-15T04:42:34.090Z,100.00
2023-12-15T04:45:37.057Z,100.00
2023-12-15T04:48:41.047Z,100.00
2023-12-15T04:51:46.694Z,100.00
2023-12-15T04:54:49.340Z,100.00
2023-12-15T04:57:55.071Z,100.00
2023-12-15T05:01:00.843Z,100.00
2023-12-15T05:04:04.059Z,100.00
2023-12-15T05:07:09.796Z,100.00
2023-12-15T05:10:13.003Z,100.00
2023-12-15T05:13:17.190Z,100.00
2023-12-15T05:16:22.968Z,100.00
2023-12-15T05:19:25.733Z,100.00
2023-12-15T05:22:28.520Z,100.00
2023-12-15T05:25:31.261Z,100.00
2023-12-15T05:28:37.120Z,100.00
2023-12-15T05:31:45.790Z,100.00
2023-12-15T05:34:48.920Z,100.00
2023-12-15T05:37:52.124Z,100.00
2023-12-15T05:40:54.973Z,100.00
2023-12-15T05:43:57.745Z,100.00
2023-12-15T05:47:00.852Z,100.00
2023-12-15T05:50:07.588Z,100.00
2023-12-15T05:53:13.535Z,100.00
2023-12-15T05:56:16.462Z,100.00
2023-12-15T05:59:19.312Z,100.00
2023-12-15T06:02:22.125Z,100.00
2023-12-15T06:05:25.012Z,100.00
2023-12-15T06:08:28.318Z,100.00
2023-12-15T06:11:31.577Z,100.00
2023-12-15T06:14:34.821Z,100.00
2023-12-15T06:17:37.853Z,100.00
2023-12-15T06:20:40.926Z,100.00
2023-12-15T06:23:43.731Z,100.00
2023-12-15T06:26:46.518Z,100.00
2023-12-15T06:29:49.616Z,100.00
2023-12-15T06:32:52.747Z,100.00
2023-12-15T06:35:55.581Z,100.00
2023-12-15T06:38:58.495Z,100.00
2023-12-15T06:42:04.371Z,100.00
2023-12-15T06:45:09.776Z,100.00
2023-12-15T06:48:12.892Z,100.00
2023-12-15T06:51:15.764Z,100.00
2023-12-15T06:54:18.589Z,100.00
2023-12-15T06:57:21.552Z,100.00
2023-12-15T07:00:24.211Z,100.00
2023-12-15T07:03:27.236Z,100.00
2023-12-15T07:06:30.339Z,100.00
2023-12-15T07:09:33.448Z,100.00
2023-12-15T07:12:36.088Z,100.00
2023-12-15T07:15:39.360Z,100.00
2023-12-15T07:18:42.229Z,100.00
2023-12-15T07:21:45.067Z,100.00
2023-12-15T07:24:48.162Z,100.00
2023-12-15T07:27:51.624Z,100.00
2023-12-15T07:30:54.436Z,100.00
2023-12-15T07:33:57.786Z,100.00
2023-12-15T07:37:00.572Z,100.00
2023-12-15T07:40:05.260Z,100.00
2023-12-15T07:43:08.365Z,100.00
2023-12-15T07:46:18.640Z,100.00
2023-12-15T07:49:21.561Z,100.00
2023-12-15T07:52:24.282Z,100.00
2023-12-15T07:55:27.088Z,100.00
2023-12-15T07:58:29.739Z,100.00
2023-12-15T08:01:32.965Z,100.00
2023-12-15T08:04:35.904Z,100.00
2023-12-15T08:07:39.210Z,100.00
2023-12-15T08:10:42.147Z,100.00
2023-12-15T08:13:45.426Z,100.00
2023-12-15T08:16:48.327Z,100.00
2023-12-15T08:19:51.367Z,100.00
2023-12-15T08:22:54.480Z,100.00
2023-12-15T08:25:57.447Z,100.00
2023-12-15T08:29:00.316Z,100.00
2023-12-15T08:32:03.283Z,100.00
2023-12-15T08:35:06.937Z,100.00
2023-12-15T08:38:10.469Z,100.00
2023-12-15T08:41:13.789Z,100.00
2023-12-15T08:44:24.468Z,100.00
2023-12-15T08:47:32.506Z,100.00
2023-12-15T08:50:35.559Z,100.00
2023-12-15T08:53:38.464Z,100.00
2023-12-15T08:56:41.479Z,100.00
2023-12-15T08:59:44.382Z,100.00
2023-12-15T09:02:47.261Z,100.00
2023-12-15T09:06:08.131Z,100.00
2023-12-15T09:09:13.367Z,100.00
2023-12-15T09:12:16.214Z,100.00
2023-12-15T09:15:19.505Z,100.00
2023-12-15T09:18:22.336Z,100.00
2023-12-15T09:21:25.188Z,100.00
2023-12-15T09:24:27.937Z,100.00
2023-12-15T09:27:30.614Z,100.00
2023-12-15T09:30:34.255Z,100.00
2023-12-15T09:33:36.990Z,100.00
2023-12-15T09:36:39.669Z,100.00
2023-12-15T09:39:42.419Z,99.47
2023-12-15T09:42:45.375Z,99.71
2023-12-15T09:45:48.342Z,98.62
2023-12-15T09:48:51.648Z,99.87
2023-12-15T09:51:54.848Z,98.54
2023-12-15T09:54:57.899Z,99.14
2023-12-15T09:58:01.322Z,97.22
2023-12-15T10:01:05.344Z,97.64
2023-12-15T10:04:08.427Z,96.32
2023-12-15T10:07:11.221Z,97.55
2023-12-15T10:10:14.214Z,96.71
2023-12-15T10:13:17.173Z,96.83
2023-12-15T10:16:22.775Z,96.47
2023-12-15T10:19:26.337Z,95.03
2023-12-15T10:22:29.380Z,95.48
2023-12-15T10:25:34.307Z,94.62
2023-12-15T10:28:40.111Z,95.85
2023-12-15T10:31:43.806Z,96.52
2023-12-15T10:34:48.037Z,95.22
2023-12-15T10:37:57.197Z,95.94
2023-12-15T10:41:00.609Z,94.99
2023-12-15T10:44:03.532Z,94.37
2023-12-15T10:47:07.688Z,95.52
2023-12-15T10:50:11.042Z,95.25
2023-12-15T10:53:16.301Z,94.18
2023-12-15T10:56:19.405Z,94.27
2023-12-15T10:59:22.512Z,94.03
2023-12-15T11:02:29.452Z,95.01
2023-12-15T11:05:38.525Z,94.81
2023-12-15T11:08:41.996Z,94.16
2023-12-15T11:11:45.341Z,92.93
2023-12-15T11:14:56.196Z,94.50
2023-12-15T11:18:00.341Z,93.48
2023-12-15T11:21:04.092Z,94.18
2023-12-15T11:24:08.803Z,95.02
2023-12-15T11:27:15.227Z,92.80
2023-12-15T11:30:39.250Z,92.00
2023-12-15T11:33:42.803Z,92.22
2023-12-15T11:36:46.464Z,93.68
2023-12-15T11:39:50.676Z,93.19
2023-12-15T11:42:53.706Z,91.74
2023-12-15T11:45:56.493Z,91.66
2023-12-15T11:48:59.317Z,92.94
2023-12-15T11:52:03.752Z,90.87
2023-12-15T11:55:06.994Z,90.50
2023-12-15T11:58:10.531Z,90.93
2023-12-15T12:01:15.915Z,90.68
2023-12-15T12:04:20.417Z,89.10
2023-12-15T12:07:23.525Z,88.56
2023-12-15T12:10:32.361Z,89.34
2023-12-15T12:13:37.242Z,88.22
2023-12-15T12:16:40.020Z,90.63
2023-12-15T12:19:44.016Z,88.67
2023-12-15T12:22:47.613Z,90.55
2023-12-15T12:25:52.698Z,89.02
2023-12-15T12:29:00.593Z,89.74
2023-12-15T12:32:06.911Z,91.12
2023-12-15T12:35:09.997Z,89.79
2023-12-15T12:38:12.837Z,90.52
2023-12-15T12:41:15.698Z,89.33
2023-12-15T12:44:18.847Z,90.38
2023-12-15T12:47:22.114Z,89.62
2023-12-15T12:50:25.500Z,90.39
2023-12-15T12:53:28.662Z,89.31
2023-12-15T12:56:31.566Z,88.80
2023-12-15T12:59:34.439Z,90.18
2023-12-15T13:02:39.495Z,90.68
2023-12-15T13:05:43.158Z,90.99
2023-12-15T13:08:46.309Z,90.15
2023-12-15T13:11:49.915Z,90.92
2023-12-15T13:14:52.879Z,90.60
2023-12-15T13:18:01.240Z,90.39
2023-12-15T13:21:05.194Z,91.14
2023-12-15T13:24:09.662Z,90.09
2023-12-15T13:27:12.447Z,90.77
2023-12-15T13:30:15.647Z,89.54
2023-12-15T13:33:18.896Z,91.65
2023-12-15T13:36:22.531Z,90.58
2023-12-15T13:39:25.669Z,89.77
2023-12-15T13:42:28.402Z,90.65
2023-12-15T13:45:31.506Z,90.56
2023-12-15T13:48:37.547Z,91.67
2023-12-15T13:51:40.508Z,90.71
2023-12-15T13:54:43.740Z,91.94
2023-12-15T13:57:47.103Z,90.98
2023-12-15T14:00:50.102Z,90.25
2023-12-15T14:03:53.158Z,91.04
2023-12-15T14:07:00.182Z,89.92
2023-12-15T14:10:07.356Z,89.77
2023-12-15T14:13:10.558Z,90.99
2023-12-15T14:16:13.699Z,90.83
2023-12-15T14:19:18.926Z,91.12
2023-12-15T14:22:22.908Z,91.80
2023-12-15T14:25:26.374Z,90.53
2023-12-15T14:28:29.461Z,90.22
2023-12-15T14:31:35.640Z,89.63
2023-12-15T14:34:38.433Z,89.60
2023-12-15T14:37:41.111Z,90.59
2023-12-15T14:40:43.842Z,89.36
2023-12-15T14:43:46.886Z,89.88
2023-12-15T14:46:49.809Z,90.44
2023-12-15T14:49:53.085Z,91.37
2023-12-15T14:52:55.737Z,90.72
2023-12-15T14:56:02.172Z,89.91
2023-12-15T14:59:08.486Z,91.43
2023-12-15T15:02:12.140Z,91.23
2023-12-15T15:05:14.976Z,90.90
2023-12-15T15:08:18.131Z,90.97
2023-12-15T15:11:21.253Z,90.83
2023-12-15T15:14:24.240Z,91.15
2023-12-15T15:17:29.273Z,90.27
2023-12-15T15:20:35.390Z,91.32
2023-12-15T15:23:38.196Z,91.21
2023-12-15T15:26:40.960Z,91.31
2023-12-15T15:29:43.835Z,92.10
2023-12-15T15:32:54.071Z,90.99
2023-12-15T15:35:57.671Z,90.55
2023-12-15T15:39:00.890Z,91.81
2023-12-15T15:42:03.803Z,90.65
2023-12-15T15:45:06.916Z,90.26
2023-12-15T15:48:13.153Z,91.51
2023-12-15T15:51:25.227Z,91.52
2023-12-15T15:54:28.088Z,91.00
2023-12-15T15:57:30.868Z,90.29
2023-12-15T16:00:33.832Z,91.02
2023-12-15T16:03:38.415Z,90.67
2023-12-15T16:06:42.213Z,90.22
2023-12-15T16:09:47.762Z,90.39
2023-12-15T16:12:50.680Z,90.67
2023-12-15T16:15:57.023Z,91.48
2023-12-15T16:18:59.796Z,92.58
2023-12-15T16:22:02.660Z,93.30
2023-12-15T16:25:05.865Z,93.12
2023-12-15T16:28:08.960Z,94.01
2023-12-15T16:31:18.159Z,93.72
2023-12-15T16:34:21.671Z,93.95
2023-12-15T16:37:24.388Z,93.89
2023-12-15T16:40:27.197Z,94.38
2023-12-15T16:43:32.910Z,94.51
2023-12-15T16:46:35.632Z,94.48
2023-12-15T16:49:42.499Z,95.11
2023-12-15T16:52:45.203Z,94.99
2023-12-15T16:55:47.906Z,95.11
2023-12-15T16:58:50.778Z,96.11
2023-12-15T17:01:53.633Z,96.92
2023-12-15T17:04:57.226Z,96.63
2023-12-15T17:08:00.214Z,96.52
2023-12-15T17:11:02.986Z,97.63
2023-12-15T17:14:05.817Z,97.33
2023-12-15T17:17:08.621Z,98.79
2023-12-15T17:20:12.086Z,98.27
2023-12-15T17:23:15.023Z,98.19
2023-12-15T17:26:20.939Z,98.74
2023-12-15T17:29:25.771Z,98.40
2023-12-15T17:32:31.072Z,99.06
2023-12-15T17:35:33.775Z,98.15
2023-12-15T17:38:36.458Z,98.79
2023-12-15T17:41:39.120Z,99.01
2023-12-15T17:44:42.011Z,100.00
2023-12-15T17:47:44.913Z,100.00
2023-12-15T17:50:49.628Z,100.00
2023-12-15T17:53:52.709Z,100.00
2023-12-15T17:56:55.338Z,100.00
2023-12-15T17:59:58.620Z,100.00
2023-12-15T18:03:01.911Z,100.00
2023-12-15T18:06:05.138Z,100.00
2023-12-15T18:09:08.056Z,100.00
2023-12-15T18:12:10.999Z,100.00
2023-12-15T18:15:14.803Z,99.90
2023-12-15T18:18:17.492Z,100.00
2023-12-15T18:21:21.769Z,100.00
2023-12-15T18:24:24.666Z,99.58
2023-12-15T18:27:27.682Z,100.00
2023-12-15T18:30:30.856Z,100.00
2023-12-15T18:33:34.637Z,100.00
2023-12-15T18:36:37.391Z,100.00
2023-12-15T18:39:40.773Z,100.00
2023-12-15T18:42:44.698Z,100.00
2023-12-15T18:45:47.791Z,100.00
2023-12-15T18:48:50.763Z,100.00
2023-12-15T18:51:53.561Z,100.00
2023-12-15T18:54:58.060Z,100.00
2023-12-15T18:58:01.286Z,100.00
2023-12-15T19:01:04.400Z,100.00
2023-12-15T19:04:07.504Z,100.00
2023-12-15T19:07:10.467Z,100.00
2023-12-15T19:10:13.840Z,100.00
2023-12-15T19:13:16.714Z,100.00
2023-12-15T19:16:19.504Z,100.00
2023-12-15T19:19:23.517Z,100.00
2023-12-15T19:22:26.346Z,100.00
2023-12-15T19:25:29.171Z,100.00
2023-12-15T19:28:31.868Z,100.00
2023-12-15T19:31:34.671Z,100.00
2023-12-15T19:34:37.628Z,100.00
2023-12-15T19:37:40.835Z,100.00
2023-12-15T19:40:43.794Z,100.00
2023-12-15T19:43:47.699Z,100.00
2023-12-15T19:46:50.395Z,100.00
2023-12-15T19:49:53.168Z,100.00
2023-12-15T19:52:57.082Z,100.00
2023-12-15T19:56:00.902Z,100.00
2023-12-15T19:59:07.303Z,100.00
2023-12-15T20:02:15.242Z,100.00
2023-12-15T20:05:20.892Z,100.00
2023-12-15T20:08:23.610Z,100.00
2023-12-15T20:11:29.792Z,100.00
2023-12-15T20:14:32.562Z,100.00
2023-12-15T20:17:35.630Z,100.00
2023-12-15T20:20:38.648Z,100.00
2023-12-15T20:23:41.336Z,100.00
2023-12-15T20:26:44.705Z,100.00
2023-12-15T20:29:47.415Z,100.00
2023-12-15T20:32:50.304Z,100.00
2023-12-15T20:35:56.171Z,100.00
2023-12-15T20:39:02.454Z,100.00
2023-12-15T20:42:09.765Z,100.00
2023-12-15T20:45:16.092Z,100.00
2023-12-15T20:48:19.697Z,100.00
2023-12-15T20:51:25.623Z,100.00
2023-12-15T20:54:28.451Z,100.00
2023-12-15T20:57:32.040Z,100.00
2023-12-15T21:00:40.939Z,100.00
2023-12-15T21:03:43.714Z,100.00
2023-12-15T21:06:49.623Z,100.00
2023-12-15T21:09:53.668Z,100.00
2023-12-15T21:13:06.512Z,100.00
2023-12-15T21:16:09.868Z,100.00
2023-12-15T21:19:12.791Z,100.00
2023-12-15T21:22:15.525Z,100.00
2023-12-15T21:25:18.980Z,100.00
2023-12-15T21:28:21.749Z,100.00
2023-12-15T21:31:25.274Z,100.00
2023-12-15T21:34:29.924Z,100.00
2023-12-15T21:37:35.729Z,100.00
2023-12-15T21:40:38.561Z,100.00
2023-12-15T21:43:41.214Z,100.00
2023-12-15T21:46:44.015Z,100.00
2023-12-15T21:49:53.644Z,100.00
2023-12-15T21:53:00.263Z,100.00
2023-12-15T21:56:09.858Z,100.00
2023-12-15T21:59:14.087Z,100.00
2023-12-15T22:02:17.371Z,100.00
2023-12-15T22:05:20.460Z,100.00
2023-12-15T22:08:23.206Z,100.00
2023-12-15T22:11:26.687Z,100.00
2023-12-15T22:14:35.915Z,100.00
2023-12-15T22:17:46.133Z,100.00
2023-12-15T22:20:49.005Z,100.00
2023-12-15T22:23:51.949Z,100.00
2023-12-15T22:26:54.685Z,100.00
2023-12-15T22:29:58.203Z,100.00
2023-12-15T22:33:01.126Z,100.00
2023-12-15T22:36:04.447Z,100.00
2023-12-15T22:39:08.119Z,100.00
2023-12-15T22:42:11.028Z,100.00
2023-12-15T22:45:13.877Z,100.00
2023-12-15T22:48:16.925Z,100.00
2023-12-15T22:51:19.707Z,100.00
2023-12-15T22:54:22.396Z,100.00
2023-12-15T22:57:25.975Z,100.00
2023-12-15T23:00:31.540Z,100.00
2023-12-15T23:03:34.387Z,100.00
2023-12-15T23:06:37.145Z,100.00
2023-12-15T23:09:39.852Z,100.00
2023-12-15T23:12:42.543Z,100.00
2023-12-15T23:15:45.490Z,100.00
2023-12-15T23:18:48.660Z,100.00
2023-12-15T23:21:51.748Z,100.00
2023-12-15T23:24:54.496Z,100.00
2023-12-15T23:27:58.384Z,100.00
2023-12-15T23:31:01.443Z,100.00
2023-12-15T23:34:04.433Z,100.00
2023-12-15T23:37:07.372Z,100.00
2023-12-15T23:40:10.872Z,100.00
2023-12-15T23:43:13.613Z,100.00
2023-12-15T23:46:16.500Z,100.00
2023-12-15T23:49:19.458Z,100.00
2023-12-15T23:52:25.140Z,100.00
2023-12-15T23:55:28.044Z,100.00
2023-12-15T23:58:31.033Z,100.00
